Saturday, November 18, 2017, 6:20 AM GMT
Back to Local

CWIT, Saint Clothilde Automated Reporting Station

Location: , , Canada Lat: 45.167
Local Time: 6:20 AM GMT ( 6:20 GMT) Lon: -73.683
Time Zone: GMT Elev: 170 ft

Show me the last for .
Show Coded

Time T Td Feel RH Dir Speed Gust Alt SLP Vis Weather Sky Remarks
2017-11-18 06:00 19 16 - 88 - Calm - - 29.99 0 None
2017-11-18 05:00 20 19 - 93 260° 1 - - 30.02 0 None
2017-11-18 04:00 20 16 - 84 - Calm - - 30.03 0 None
2017-11-18 03:00 22 15 - 73 280° 2 - - 30.04 0 None
2017-11-18 02:00 24 15 20 66 280° 3 - - 30.06 0 None
2017-11-18 01:00 26 15 19 65 280° 6 - - 30.08 0 None
2017-11-18 00:00 26 16 21 67 260° 3 - - 30.08 0 None
2017-11-17 23:00 27 16 20 63 270° 7 - - 30.10 0 None
2017-11-17 22:00 28 16 19 61 280° 8 - - 30.07 0 None
2017-11-17 21:00 28 19 20 65 280° 9 - - 30.07 0 Peak wind: 19 mph (17 kts) from 290° at 09 min
2017-11-17 20:00 31 17 18 55 280° 13 23 - 30.06 0 Peak wind: 25 mph (22 kts) from 280° at 20 min
2017-11-17 19:00 29 16 15 59 290° 14 22 - 30.05 0 Peak wind: 24 mph (21 kts) from 270° at 18 min
2017-11-17 18:00 28 18 14 63 280° 13 24 - 30.05 0 Peak wind: 25 mph (22 kts) from 270° at 41 min
1-hr Precip Total: 0.01"
2017-11-17 17:00 27 18 14 66 290° 10 20 - 30.05 0 Peak wind: 24 mph (21 kts) from 290° at 40 min
2017-11-17 16:00 27 19 13 70 290° 12 22 - 30.07 0 Peak wind: 25 mph (22 kts) from 310° at 39 min
2017-11-17 15:00 27 19 13 71 290° 10 21 - 30.08 0 Peak wind: 24 mph (21 kts) from 310° at 45 min
2017-11-17 14:00 28 22 14 79 290° 12 20 - 30.07 0 Peak wind: 20 mph (18 kts) from 280° at 33 min
2017-11-17 13:00 28 21 15 73 280° 12 21 - 30.05 0 Peak wind: 26 mph (23 kts) from 280° at 30 min
2017-11-17 12:00 28 22 15 75 290° 10 22 - 30.02 0 Peak wind: 27 mph (24 kts) from 290° at 41 min
2017-11-17 11:00 29 23 16 78 290° 12 20 - 29.98 0 Peak wind: 23 mph (20 kts) from 280° at 17 min
2017-11-17 10:00 29 23 15 78 290° 12 24 - 29.96 0 Peak wind: 27 mph (24 kts) from 270° at 34 min
2017-11-17 09:00 29 24 15 81 290° 12 24 - 29.91 0 Peak wind: 24 mph (21 kts) from 280° at 31 min
2017-11-17 08:00 29 27 17 92 280° 10 18 - 29.88 0 Peak wind: 23 mph (20 kts) from 290° at 00 min
1-hr Precip Total: 0.02"
2017-11-17 07:00 30 27 17 86 280° 13 22 - 29.85 0 Peak wind: 23 mph (20 kts) from 280° at 18 min

Support USWX by starting your Amazon purchase here.